CSN8321 ZUGY-ZSNJ
Flight info
| Callsign | CSN8321 |
|---|---|
| Flight time | 1h 47m |
| Altitude | 31100 |
| Route | AVBOB W586 TRN W183 HUY A581 WHA R343 HFE |
| Aircraft | B738/M-SDE2E3FGILRWXY/LB2 |
Departure
| Time | 2026-05-01 08:23 |
|---|---|
| Airport | Guiyang Longdongbao International Airport (ZUGY) |
Arrival
| Time | 2026-05-01 10:11 |
|---|---|
| Airport | Nanjing Lukou International Airport (ZSNJ) |
| Time | Latitude | Longitude | Altitude | Speed | Heading |
|---|---|---|---|---|---|
| 2026-05-01 07:57 | 26.55214 | 106.79893 | 3745 ft | 0 kts | 280° |
| 2026-05-01 08:10 | 26.55214 | 106.79897 | 3745 ft | 2 kts | 280° |
| 2026-05-01 08:11 | 26.55208 | 106.79932 | 3745 ft | 2 kts | 280° |
| 2026-05-01 08:11 | 26.55197 | 106.79966 | 3745 ft | 2 kts | 332° |
| 2026-05-01 08:12 | 26.55187 | 106.79967 | 3745 ft | 0 kts | 8° |
| 2026-05-01 08:15 | 26.55194 | 106.79970 | 3745 ft | 2 kts | 37° |
| 2026-05-01 08:15 | 26.55209 | 106.79991 | 3745 ft | 4 kts | 95° |
| 2026-05-01 08:16 | 26.55200 | 106.80025 | 3745 ft | 4 kts | 100° |
| 2026-05-01 08:16 | 26.55191 | 106.80077 | 3745 ft | 9 kts | 100° |
| 2026-05-01 08:16 | 26.55209 | 106.80123 | 3745 ft | 8 kts | 20° |
| 2026-05-01 08:16 | 26.55256 | 106.80133 | 3745 ft | 8 kts | 10° |
| 2026-05-01 08:17 | 26.55320 | 106.80146 | 3745 ft | 11 kts | 10° |
| 2026-05-01 08:17 | 26.55405 | 106.80162 | 3745 ft | 14 kts | 9° |
| 2026-05-01 08:17 | 26.55516 | 106.80183 | 3745 ft | 18 kts | 12° |
| 2026-05-01 08:17 | 26.55634 | 106.80207 | 3745 ft | 17 kts | 10° |
| 2026-05-01 08:18 | 26.55746 | 106.80229 | 3745 ft | 16 kts | 9° |
| 2026-05-01 08:18 | 26.55958 | 106.80269 | 3745 ft | 16 kts | 9° |
| 2026-05-01 08:19 | 26.56093 | 106.80372 | 3745 ft | 12 kts | 56° |
| 2026-05-01 08:19 | 26.56111 | 106.80456 | 3745 ft | 11 kts | 98° |
| 2026-05-01 08:19 | 26.56098 | 106.80539 | 3745 ft | 11 kts | 100° |
| 2026-05-01 08:19 | 26.56084 | 106.80627 | 3745 ft | 12 kts | 99° |
| 2026-05-01 08:20 | 26.56059 | 106.80720 | 3745 ft | 13 kts | 135° |
| 2026-05-01 08:20 | 26.55981 | 106.80730 | 3745 ft | 10 kts | 190° |
| 2026-05-01 08:20 | 26.55919 | 106.80725 | 3745 ft | 7 kts | 144° |
| 2026-05-01 08:20 | 26.55903 | 106.80777 | 3745 ft | 6 kts | 99° |
| 2026-05-01 08:21 | 26.55901 | 106.80787 | 3745 ft | 1 kts | 99° |
| 2026-05-01 08:21 | 26.55898 | 106.80805 | 3745 ft | 3 kts | 99° |
| 2026-05-01 08:21 | 26.55893 | 106.80838 | 3745 ft | 5 kts | 99° |
| 2026-05-01 08:21 | 26.55882 | 106.80883 | 3745 ft | 7 kts | 126° |
| 2026-05-01 08:22 | 26.55852 | 106.80891 | 3745 ft | 2 kts | 188° |
| 2026-05-01 08:22 | 26.55850 | 106.80891 | 3745 ft | 1 kts | 188° |
| 2026-05-01 08:22 | 26.55743 | 106.80870 | 3745 ft | 42 kts | 191° |
| 2026-05-01 08:22 | 26.55262 | 106.80775 | 3745 ft | 98 kts | 189° |
| 2026-05-01 08:23 | 26.54421 | 106.80610 | 3745 ft | 146 kts | 190° |
| 2026-05-01 08:23 | 26.53346 | 106.80397 | 4090 ft | 163 kts | 191° |
| 2026-05-01 08:23 | 26.52191 | 106.80171 | 4684 ft | 170 kts | 191° |
| 2026-05-01 08:23 | 26.51049 | 106.79940 | 5506 ft | 165 kts | 191° |
| 2026-05-01 08:24 | 26.49886 | 106.79712 | 6052 ft | 177 kts | 189° |
| 2026-05-01 08:24 | 26.48646 | 106.79479 | 6645 ft | 182 kts | 188° |
| 2026-05-01 08:24 | 26.47403 | 106.79518 | 7327 ft | 182 kts | 162° |
| 2026-05-01 08:24 | 26.46389 | 106.80375 | 7940 ft | 193 kts | 129° |
| 2026-05-01 08:25 | 26.45862 | 106.81846 | 8320 ft | 219 kts | 106° |
| 2026-05-01 08:25 | 26.45580 | 106.83599 | 8585 ft | 239 kts | 108° |
| 2026-05-01 08:25 | 26.45187 | 106.85487 | 8822 ft | 263 kts | 109° |
| 2026-05-01 08:25 | 26.44738 | 106.87545 | 9286 ft | 279 kts | 109° |
| 2026-05-01 08:26 | 26.44272 | 106.89709 | 9771 ft | 295 kts | 109° |
| 2026-05-01 08:26 | 26.43792 | 106.91968 | 10383 ft | 305 kts | 108° |
| 2026-05-01 08:26 | 26.43292 | 106.94326 | 10863 ft | 320 kts | 108° |
| 2026-05-01 08:26 | 26.42767 | 106.96827 | 11145 ft | 341 kts | 108° |
| 2026-05-01 08:27 | 26.42210 | 106.99475 | 11423 ft | 360 kts | 107° |
| 2026-05-01 08:27 | 26.41626 | 107.02254 | 11677 ft | 378 kts | 107° |
| 2026-05-01 08:27 | 26.41012 | 107.05173 | 12062 ft | 391 kts | 107° |
| 2026-05-01 08:27 | 26.40389 | 107.08143 | 12638 ft | 396 kts | 107° |
| 2026-05-01 08:28 | 26.39807 | 107.11163 | 13289 ft | 401 kts | 101° |
| 2026-05-01 08:28 | 26.39817 | 107.14291 | 13906 ft | 409 kts | 83° |
| 2026-05-01 08:28 | 26.40631 | 107.17343 | 14524 ft | 413 kts | 66° |
| 2026-05-01 08:28 | 26.42111 | 107.20087 | 15130 ft | 415 kts | 53° |
| 2026-05-01 08:29 | 26.44030 | 107.22499 | 15720 ft | 416 kts | 44° |
| 2026-05-01 08:29 | 26.46118 | 107.24754 | 16292 ft | 419 kts | 44° |
| 2026-05-01 08:29 | 26.48146 | 107.27102 | 16835 ft | 422 kts | 46° |
| 2026-05-01 08:29 | 26.50129 | 107.29534 | 17391 ft | 424 kts | 46° |
| 2026-05-01 08:30 | 26.52118 | 107.31976 | 17918 ft | 427 kts | 46° |
| 2026-05-01 08:30 | 26.54121 | 107.34435 | 18414 ft | 430 kts | 46° |
| 2026-05-01 08:30 | 26.56156 | 107.36895 | 18883 ft | 432 kts | 44° |
| 2026-05-01 08:30 | 26.58299 | 107.39273 | 19350 ft | 435 kts | 42° |
| 2026-05-01 08:31 | 26.60482 | 107.41622 | 19799 ft | 438 kts | 43° |
| 2026-05-01 08:31 | 26.62664 | 107.44017 | 20235 ft | 441 kts | 43° |
| 2026-05-01 08:31 | 26.64844 | 107.46438 | 20655 ft | 444 kts | 43° |
| 2026-05-01 08:31 | 26.67034 | 107.48884 | 21066 ft | 446 kts | 43° |
| 2026-05-01 08:32 | 26.69204 | 107.51313 | 21468 ft | 449 kts | 43° |
| 2026-05-01 08:32 | 26.71415 | 107.53791 | 21856 ft | 451 kts | 43° |
| 2026-05-01 08:32 | 26.73668 | 107.56317 | 22235 ft | 454 kts | 43° |
| 2026-05-01 08:32 | 26.75869 | 107.58784 | 22605 ft | 456 kts | 43° |
| 2026-05-01 08:33 | 26.78066 | 107.61361 | 22960 ft | 459 kts | 47° |
| 2026-05-01 08:33 | 26.80084 | 107.64156 | 23301 ft | 462 kts | 51° |
| 2026-05-01 08:33 | 26.81998 | 107.67061 | 23638 ft | 465 kts | 53° |
| 2026-05-01 08:33 | 26.83896 | 107.70002 | 23964 ft | 467 kts | 53° |
| 2026-05-01 08:34 | 26.85807 | 107.72942 | 24279 ft | 469 kts | 52° |
| 2026-05-01 08:34 | 26.87738 | 107.75899 | 24604 ft | 471 kts | 52° |
| 2026-05-01 08:34 | 26.89677 | 107.78869 | 24911 ft | 473 kts | 52° |
| 2026-05-01 08:34 | 26.91626 | 107.81843 | 25181 ft | 475 kts | 52° |
| 2026-05-01 08:35 | 26.93590 | 107.84839 | 25479 ft | 477 kts | 52° |
| 2026-05-01 08:35 | 26.95556 | 107.87840 | 25775 ft | 479 kts | 52° |
| 2026-05-01 08:35 | 26.97536 | 107.90859 | 26062 ft | 481 kts | 52° |
| 2026-05-01 08:35 | 26.99541 | 107.93867 | 26340 ft | 482 kts | 52° |
| 2026-05-01 08:36 | 27.01538 | 107.96897 | 26584 ft | 485 kts | 52° |
| 2026-05-01 08:36 | 27.03537 | 107.99946 | 26842 ft | 487 kts | 52° |
| 2026-05-01 08:36 | 27.05542 | 108.03015 | 27139 ft | 487 kts | 52° |
| 2026-05-01 08:36 | 27.07543 | 108.06082 | 27396 ft | 489 kts | 52° |
| 2026-05-01 08:37 | 27.09555 | 108.09169 | 27631 ft | 491 kts | 52° |
| 2026-05-01 08:37 | 27.11577 | 108.12275 | 27857 ft | 493 kts | 52° |
| 2026-05-01 08:37 | 27.13599 | 108.15378 | 28205 ft | 492 kts | 52° |
| 2026-05-01 08:37 | 27.15611 | 108.18466 | 28592 ft | 490 kts | 52° |
| 2026-05-01 08:38 | 27.17624 | 108.21562 | 28922 ft | 490 kts | 52° |
| 2026-05-01 08:38 | 27.19628 | 108.24648 | 29282 ft | 489 kts | 52° |
| 2026-05-01 08:38 | 27.21628 | 108.27733 | 29639 ft | 488 kts | 52° |
| 2026-05-01 08:38 | 27.23622 | 108.30813 | 29968 ft | 488 kts | 52° |
| 2026-05-01 08:39 | 27.25591 | 108.33855 | 30342 ft | 487 kts | 52° |
| 2026-05-01 08:39 | 27.27578 | 108.36930 | 30691 ft | 486 kts | 52° |
| 2026-05-01 08:39 | 27.29594 | 108.40052 | 30918 ft | 488 kts | 51° |
| 2026-05-01 08:40 | 27.35549 | 108.49286 | 30941 ft | 486 kts | 51° |
| 2026-05-01 08:40 | 27.39533 | 108.55424 | 30940 ft | 486 kts | 51° |
| 2026-05-01 08:41 | 27.43512 | 108.61570 | 30939 ft | 486 kts | 51° |
| 2026-05-01 08:41 | 27.47477 | 108.67723 | 30938 ft | 486 kts | 51° |
| 2026-05-01 08:42 | 27.51443 | 108.73889 | 30938 ft | 486 kts | 51° |
| 2026-05-01 08:42 | 27.55405 | 108.80060 | 30937 ft | 485 kts | 51° |
| 2026-05-01 08:43 | 27.59355 | 108.86223 | 30936 ft | 485 kts | 51° |
| 2026-05-01 08:43 | 27.63310 | 108.92400 | 30936 ft | 485 kts | 51° |
| 2026-05-01 08:44 | 27.67254 | 108.98571 | 30935 ft | 485 kts | 51° |
| 2026-05-01 08:44 | 27.71213 | 109.04736 | 30935 ft | 486 kts | 51° |
| 2026-05-01 08:45 | 27.75156 | 109.10926 | 30934 ft | 485 kts | 51° |
| 2026-05-01 08:45 | 27.79086 | 109.17115 | 30934 ft | 485 kts | 51° |
| 2026-05-01 08:46 | 27.83013 | 109.23306 | 30934 ft | 485 kts | 51° |
| 2026-05-01 08:46 | 27.85156 | 109.26234 | 30927 ft | 480 kts | 40° |
| 2026-05-01 08:46 | 27.87780 | 109.28511 | 30932 ft | 473 kts | 27° |
| 2026-05-01 08:47 | 27.90754 | 109.30032 | 30936 ft | 467 kts | 15° |
| 2026-05-01 08:47 | 27.93867 | 109.31008 | 30935 ft | 463 kts | 8° |
| 2026-05-01 08:47 | 28.00186 | 109.32353 | 30932 ft | 462 kts | 6° |
| 2026-05-01 08:48 | 28.06521 | 109.33677 | 30930 ft | 463 kts | 6° |
| 2026-05-01 08:48 | 28.12837 | 109.35046 | 30929 ft | 463 kts | 6° |
| 2026-05-01 08:49 | 28.19154 | 109.36431 | 30927 ft | 463 kts | 6° |
| 2026-05-01 08:49 | 28.25479 | 109.37817 | 30924 ft | 462 kts | 6° |
| 2026-05-01 08:50 | 28.31790 | 109.39200 | 30917 ft | 462 kts | 6° |
| 2026-05-01 08:50 | 28.38095 | 109.40591 | 30914 ft | 462 kts | 6° |
| 2026-05-01 08:51 | 28.44414 | 109.41988 | 30913 ft | 462 kts | 6° |
| 2026-05-01 08:51 | 28.50712 | 109.43384 | 30911 ft | 462 kts | 7° |
| 2026-05-01 08:52 | 28.53823 | 109.44398 | 30902 ft | 469 kts | 19° |
| 2026-05-01 08:52 | 28.56659 | 109.46273 | 30908 ft | 478 kts | 34° |
| 2026-05-01 08:52 | 28.59048 | 109.48947 | 30909 ft | 485 kts | 49° |
| 2026-05-01 08:52 | 28.60823 | 109.52219 | 30909 ft | 490 kts | 63° |
| 2026-05-01 08:53 | 28.62896 | 109.59576 | 30914 ft | 492 kts | 67° |
| 2026-05-01 08:53 | 28.65471 | 109.66788 | 30911 ft | 491 kts | 65° |
| 2026-05-01 08:54 | 28.68058 | 109.73999 | 30912 ft | 491 kts | 65° |
| 2026-05-01 08:54 | 28.70215 | 109.80035 | 30913 ft | 491 kts | 65° |
| 2026-05-01 08:55 | 28.72770 | 109.87202 | 30916 ft | 491 kts | 65° |
| 2026-05-01 08:55 | 28.75337 | 109.94418 | 30919 ft | 491 kts | 65° |
| 2026-05-01 08:56 | 28.77904 | 110.01643 | 30922 ft | 491 kts | 65° |
| 2026-05-01 08:56 | 28.80490 | 110.08833 | 30923 ft | 491 kts | 65° |
| 2026-05-01 08:57 | 28.83060 | 110.16034 | 30924 ft | 491 kts | 65° |
| 2026-05-01 08:57 | 28.85621 | 110.23245 | 30927 ft | 490 kts | 65° |
| 2026-05-01 08:58 | 28.88175 | 110.30463 | 30929 ft | 490 kts | 65° |
| 2026-05-01 08:58 | 28.90724 | 110.37682 | 30931 ft | 490 kts | 65° |
| 2026-05-01 08:59 | 28.93291 | 110.44896 | 30933 ft | 490 kts | 65° |
| 2026-05-01 08:59 | 28.95831 | 110.52130 | 30934 ft | 491 kts | 65° |
| 2026-05-01 09:00 | 28.98359 | 110.59363 | 30936 ft | 491 kts | 65° |
| 2026-05-01 09:00 | 29.00889 | 110.66611 | 30937 ft | 491 kts | 65° |
| 2026-05-01 09:01 | 29.03415 | 110.73846 | 30939 ft | 491 kts | 65° |
| 2026-05-01 09:01 | 29.05980 | 110.81075 | 30940 ft | 491 kts | 65° |
| 2026-05-01 09:02 | 29.08530 | 110.88300 | 30941 ft | 490 kts | 65° |
| 2026-05-01 09:02 | 29.11080 | 110.95543 | 30942 ft | 490 kts | 65° |
| 2026-05-01 09:03 | 29.13622 | 111.02779 | 30944 ft | 491 kts | 65° |
| 2026-05-01 09:03 | 29.16170 | 111.10029 | 30945 ft | 491 kts | 65° |
| 2026-05-01 09:04 | 29.18739 | 111.17256 | 30946 ft | 491 kts | 65° |
| 2026-05-01 09:04 | 29.21287 | 111.24502 | 30947 ft | 491 kts | 65° |
| 2026-05-01 09:05 | 29.23830 | 111.31745 | 30948 ft | 490 kts | 65° |
| 2026-05-01 09:05 | 29.26379 | 111.38991 | 30949 ft | 490 kts | 65° |
| 2026-05-01 09:06 | 29.28903 | 111.46253 | 30949 ft | 490 kts | 65° |
| 2026-05-01 09:06 | 29.31403 | 111.53471 | 30951 ft | 490 kts | 66° |
| 2026-05-01 09:07 | 29.33918 | 111.60739 | 30952 ft | 490 kts | 65° |
| 2026-05-01 09:07 | 29.36939 | 111.67705 | 30953 ft | 487 kts | 56° |
| 2026-05-01 09:08 | 29.40644 | 111.74204 | 30953 ft | 487 kts | 53° |
| 2026-05-01 09:08 | 29.44378 | 111.80678 | 30953 ft | 487 kts | 53° |
| 2026-05-01 09:09 | 29.48094 | 111.87180 | 30953 ft | 487 kts | 53° |
| 2026-05-01 09:09 | 29.51798 | 111.93684 | 30954 ft | 487 kts | 53° |
| 2026-05-01 09:10 | 29.55509 | 112.00179 | 30954 ft | 487 kts | 53° |
| 2026-05-01 09:10 | 29.59238 | 112.06659 | 30954 ft | 486 kts | 53° |
| 2026-05-01 09:11 | 29.62929 | 112.13161 | 30962 ft | 486 kts | 53° |
| 2026-05-01 09:11 | 29.66614 | 112.19680 | 30965 ft | 486 kts | 54° |
| 2026-05-01 09:12 | 29.70295 | 112.26201 | 30965 ft | 486 kts | 54° |
| 2026-05-01 09:12 | 29.73971 | 112.32719 | 30964 ft | 486 kts | 54° |
| 2026-05-01 09:13 | 29.77635 | 112.39259 | 30964 ft | 486 kts | 54° |
| 2026-05-01 09:13 | 29.81290 | 112.45802 | 30963 ft | 486 kts | 54° |
| 2026-05-01 09:14 | 29.84919 | 112.52315 | 30963 ft | 486 kts | 54° |
| 2026-05-01 09:14 | 29.88590 | 112.58912 | 30960 ft | 486 kts | 54° |
| 2026-05-01 09:15 | 29.92209 | 112.65425 | 30961 ft | 486 kts | 54° |
| 2026-05-01 09:15 | 29.95884 | 112.71973 | 30960 ft | 486 kts | 54° |
| 2026-05-01 09:16 | 29.99535 | 112.78529 | 30959 ft | 485 kts | 54° |
| 2026-05-01 09:17 | 30.05012 | 112.88388 | 30958 ft | 487 kts | 53° |
| 2026-05-01 09:17 | 30.10488 | 112.98263 | 30955 ft | 486 kts | 54° |
| 2026-05-01 09:18 | 30.14116 | 113.04859 | 30955 ft | 487 kts | 54° |
| 2026-05-01 09:20 | 30.26679 | 113.27551 | 30952 ft | 485 kts | 53° |
| 2026-05-01 09:21 | 30.34011 | 113.40663 | 30951 ft | 485 kts | 53° |
| 2026-05-01 09:21 | 30.39501 | 113.50515 | 30953 ft | 485 kts | 53° |
| 2026-05-01 09:22 | 30.46636 | 113.63218 | 30951 ft | 485 kts | 54° |
| 2026-05-01 09:23 | 30.52101 | 113.73083 | 30950 ft | 485 kts | 54° |
| 2026-05-01 09:24 | 30.57561 | 113.82955 | 30948 ft | 485 kts | 54° |
| 2026-05-01 09:25 | 30.64840 | 113.96127 | 30947 ft | 485 kts | 53° |
| 2026-05-01 09:26 | 30.70310 | 114.06016 | 30946 ft | 485 kts | 54° |
| 2026-05-01 09:26 | 30.75728 | 114.15885 | 30947 ft | 485 kts | 53° |
| 2026-05-01 09:27 | 30.80291 | 114.26431 | 30949 ft | 491 kts | 66° |
| 2026-05-01 09:28 | 30.82601 | 114.33915 | 30950 ft | 491 kts | 66° |
| 2026-05-01 09:28 | 30.85038 | 114.41338 | 30952 ft | 491 kts | 66° |
| 2026-05-01 09:29 | 30.88646 | 114.52499 | 30956 ft | 491 kts | 66° |
| 2026-05-01 09:30 | 30.92288 | 114.63646 | 30960 ft | 492 kts | 66° |
| 2026-05-01 09:30 | 30.95901 | 114.74825 | 30963 ft | 492 kts | 66° |
| 2026-05-01 09:31 | 30.98298 | 114.82294 | 30965 ft | 492 kts | 66° |
| 2026-05-01 09:32 | 31.01894 | 114.93511 | 30967 ft | 493 kts | 66° |
| 2026-05-01 09:32 | 31.05503 | 115.04734 | 30971 ft | 493 kts | 66° |
| 2026-05-01 09:33 | 31.07885 | 115.12222 | 30982 ft | 493 kts | 66° |
| 2026-05-01 09:33 | 31.10268 | 115.19722 | 30719 ft | 494 kts | 66° |
| 2026-05-01 09:34 | 31.11459 | 115.23486 | 30343 ft | 494 kts | 67° |
| 2026-05-01 09:34 | 31.12645 | 115.27250 | 29968 ft | 495 kts | 67° |
| 2026-05-01 09:34 | 31.15072 | 115.34792 | 29218 ft | 497 kts | 66° |
| 2026-05-01 09:35 | 31.16280 | 115.38519 | 28849 ft | 498 kts | 67° |
| 2026-05-01 09:35 | 31.18766 | 115.46141 | 28093 ft | 500 kts | 66° |
| 2026-05-01 09:35 | 31.20005 | 115.49933 | 27719 ft | 501 kts | 67° |
| 2026-05-01 09:36 | 31.21235 | 115.53741 | 27343 ft | 502 kts | 67° |
| 2026-05-01 09:36 | 31.22447 | 115.57514 | 26973 ft | 503 kts | 68° |
| 2026-05-01 09:36 | 31.23672 | 115.61339 | 26636 ft | 504 kts | 68° |
| 2026-05-01 09:36 | 31.24898 | 115.65172 | 26577 ft | 504 kts | 68° |
| 2026-05-01 09:37 | 31.26126 | 115.69014 | 26514 ft | 505 kts | 68° |
| 2026-05-01 09:37 | 31.28588 | 115.76713 | 26502 ft | 506 kts | 68° |
| 2026-05-01 09:37 | 31.29817 | 115.80566 | 26503 ft | 506 kts | 68° |
| 2026-05-01 09:38 | 31.32278 | 115.88285 | 26506 ft | 507 kts | 68° |
| 2026-05-01 09:38 | 31.33521 | 115.92134 | 26507 ft | 506 kts | 67° |
| 2026-05-01 09:38 | 31.34778 | 115.95978 | 26509 ft | 506 kts | 67° |
| 2026-05-01 09:39 | 31.37281 | 116.03679 | 26511 ft | 506 kts | 67° |
| 2026-05-01 09:39 | 31.38530 | 116.07534 | 26513 ft | 506 kts | 67° |
| 2026-05-01 09:39 | 31.39776 | 116.11389 | 26515 ft | 506 kts | 67° |
| 2026-05-01 09:40 | 31.41020 | 116.15242 | 26516 ft | 506 kts | 67° |
| 2026-05-01 09:40 | 31.43507 | 116.22958 | 26518 ft | 506 kts | 67° |
| 2026-05-01 09:40 | 31.44751 | 116.26810 | 26520 ft | 506 kts | 66° |
| 2026-05-01 09:41 | 31.46016 | 116.30652 | 26522 ft | 506 kts | 66° |
| 2026-05-01 09:41 | 31.48520 | 116.38362 | 26523 ft | 506 kts | 67° |
| 2026-05-01 09:41 | 31.49765 | 116.42222 | 26524 ft | 506 kts | 67° |
| 2026-05-01 09:42 | 31.51004 | 116.46071 | 26525 ft | 506 kts | 67° |
| 2026-05-01 09:42 | 31.52244 | 116.49931 | 26526 ft | 506 kts | 67° |
| 2026-05-01 09:42 | 31.54717 | 116.57648 | 26528 ft | 506 kts | 67° |
| 2026-05-01 09:43 | 31.57187 | 116.65372 | 26530 ft | 506 kts | 67° |
| 2026-05-01 09:43 | 31.58441 | 116.69234 | 26530 ft | 506 kts | 67° |
| 2026-05-01 09:43 | 31.59679 | 116.73098 | 26541 ft | 506 kts | 67° |
| 2026-05-01 09:44 | 31.62132 | 116.80831 | 25841 ft | 503 kts | 67° |
| 2026-05-01 09:44 | 31.63343 | 116.84664 | 25466 ft | 500 kts | 67° |
| 2026-05-01 09:44 | 31.64548 | 116.88479 | 25090 ft | 497 kts | 67° |
| 2026-05-01 09:45 | 31.65731 | 116.92229 | 24719 ft | 495 kts | 67° |
| 2026-05-01 09:45 | 31.68109 | 116.99764 | 23968 ft | 490 kts | 67° |
| 2026-05-01 09:45 | 31.69285 | 117.03505 | 23593 ft | 487 kts | 67° |
| 2026-05-01 09:46 | 31.70445 | 117.07224 | 23217 ft | 483 kts | 68° |
| 2026-05-01 09:46 | 31.71587 | 117.10918 | 22842 ft | 480 kts | 68° |
| 2026-05-01 09:46 | 31.72720 | 117.14598 | 22465 ft | 477 kts | 68° |
| 2026-05-01 09:46 | 31.73841 | 117.18246 | 22089 ft | 473 kts | 68° |
| 2026-05-01 09:47 | 31.74951 | 117.21862 | 21715 ft | 469 kts | 68° |
| 2026-05-01 09:47 | 31.75805 | 117.25557 | 21332 ft | 470 kts | 79° |
| 2026-05-01 09:47 | 31.75875 | 117.29380 | 20954 ft | 468 kts | 95° |
| 2026-05-01 09:47 | 31.75123 | 117.33076 | 20745 ft | 464 kts | 110° |
| 2026-05-01 09:48 | 31.73737 | 117.36487 | 20687 ft | 463 kts | 120° |
| 2026-05-01 09:48 | 31.72005 | 117.39666 | 20647 ft | 462 kts | 127° |
| 2026-05-01 09:48 | 31.70058 | 117.42668 | 20642 ft | 461 kts | 130° |
| 2026-05-01 09:48 | 31.68105 | 117.45657 | 20637 ft | 462 kts | 128° |
| 2026-05-01 09:49 | 31.66210 | 117.48700 | 20636 ft | 462 kts | 127° |
| 2026-05-01 09:49 | 31.64338 | 117.51767 | 20636 ft | 462 kts | 127° |
| 2026-05-01 09:49 | 31.62656 | 117.54982 | 20628 ft | 464 kts | 116° |
| 2026-05-01 09:49 | 31.61623 | 117.58563 | 20632 ft | 465 kts | 102° |
| 2026-05-01 09:50 | 31.61274 | 117.62316 | 20640 ft | 463 kts | 91° |
| 2026-05-01 09:50 | 31.61394 | 117.66081 | 20639 ft | 462 kts | 83° |
| 2026-05-01 09:50 | 31.61798 | 117.69828 | 20639 ft | 462 kts | 79° |
| 2026-05-01 09:50 | 31.62281 | 117.73543 | 20639 ft | 462 kts | 79° |
| 2026-05-01 09:51 | 31.62718 | 117.77271 | 20639 ft | 462 kts | 80° |
| 2026-05-01 09:51 | 31.63120 | 117.81010 | 20640 ft | 462 kts | 80° |
| 2026-05-01 09:51 | 31.63528 | 117.84748 | 20637 ft | 462 kts | 81° |
| 2026-05-01 09:51 | 31.63901 | 117.88460 | 20420 ft | 453 kts | 81° |
| 2026-05-01 09:52 | 31.64256 | 117.92095 | 20042 ft | 445 kts | 81° |
| 2026-05-01 09:52 | 31.64600 | 117.95682 | 19609 ft | 439 kts | 81° |
| 2026-05-01 09:52 | 31.64938 | 117.99227 | 19107 ft | 435 kts | 81° |
| 2026-05-01 09:52 | 31.65271 | 118.02739 | 18621 ft | 431 kts | 81° |
| 2026-05-01 09:53 | 31.65600 | 118.06221 | 18118 ft | 426 kts | 81° |
| 2026-05-01 09:53 | 31.65925 | 118.09653 | 17557 ft | 420 kts | 81° |
| 2026-05-01 09:53 | 31.66245 | 118.13039 | 16946 ft | 415 kts | 81° |
| 2026-05-01 09:53 | 31.66562 | 118.16392 | 16355 ft | 410 kts | 81° |
| 2026-05-01 09:54 | 31.66780 | 118.19699 | 15783 ft | 405 kts | 85° |
| 2026-05-01 09:54 | 31.66892 | 118.22981 | 15208 ft | 398 kts | 82° |
| 2026-05-01 09:54 | 31.67598 | 118.26069 | 14615 ft | 388 kts | 63° |
| 2026-05-01 09:54 | 31.69089 | 118.28626 | 14030 ft | 376 kts | 43° |
| 2026-05-01 09:55 | 31.71171 | 118.30386 | 13424 ft | 366 kts | 23° |
| 2026-05-01 09:55 | 31.73583 | 118.31143 | 12887 ft | 355 kts | 2° |
| 2026-05-01 09:55 | 31.75965 | 118.30792 | 12634 ft | 338 kts | 340° |
| 2026-05-01 09:55 | 31.77935 | 118.29464 | 12524 ft | 318 kts | 318° |
| 2026-05-01 09:56 | 31.79198 | 118.27470 | 12306 ft | 296 kts | 294° |
| 2026-05-01 09:56 | 31.79603 | 118.25165 | 11887 ft | 287 kts | 269° |
| 2026-05-01 09:56 | 31.79383 | 118.23639 | 11479 ft | 287 kts | 252° |
| 2026-05-01 09:56 | 31.77845 | 118.21120 | 10604 ft | 289 kts | 218° |
| 2026-05-01 09:57 | 31.76681 | 118.20367 | 10193 ft | 289 kts | 202° |
| 2026-05-01 09:57 | 31.74826 | 118.19714 | 9628 ft | 286 kts | 195° |
| 2026-05-01 09:57 | 31.72842 | 118.19162 | 9011 ft | 283 kts | 193° |
| 2026-05-01 09:57 | 31.70936 | 118.18636 | 8508 ft | 278 kts | 193° |
| 2026-05-01 09:58 | 31.69117 | 118.18129 | 8349 ft | 259 kts | 193° |
| 2026-05-01 09:58 | 31.67408 | 118.17649 | 8084 ft | 247 kts | 193° |
| 2026-05-01 09:58 | 31.65753 | 118.17184 | 7671 ft | 243 kts | 193° |
| 2026-05-01 09:58 | 31.64125 | 118.16726 | 7234 ft | 240 kts | 193° |
| 2026-05-01 09:59 | 31.62503 | 118.16270 | 6784 ft | 239 kts | 193° |
| 2026-05-01 09:59 | 31.60876 | 118.15811 | 6495 ft | 240 kts | 193° |
| 2026-05-01 09:59 | 31.59244 | 118.15635 | 6285 ft | 235 kts | 170° |
| 2026-05-01 09:59 | 31.57782 | 118.16409 | 6015 ft | 233 kts | 139° |
| 2026-05-01 10:00 | 31.56898 | 118.17961 | 5738 ft | 231 kts | 107° |
| 2026-05-01 10:00 | 31.56819 | 118.19818 | 5467 ft | 230 kts | 82° |
| 2026-05-01 10:00 | 31.57139 | 118.21644 | 5232 ft | 228 kts | 77° |
| 2026-05-01 10:00 | 31.57518 | 118.23445 | 4986 ft | 227 kts | 76° |
| 2026-05-01 10:01 | 31.57874 | 118.25240 | 4718 ft | 226 kts | 83° |
| 2026-05-01 10:01 | 31.57830 | 118.27069 | 4443 ft | 225 kts | 97° |
| 2026-05-01 10:01 | 31.57656 | 118.28891 | 4154 ft | 226 kts | 95° |
| 2026-05-01 10:01 | 31.57590 | 118.30740 | 3830 ft | 228 kts | 92° |
| 2026-05-01 10:02 | 31.57620 | 118.32616 | 3526 ft | 230 kts | 89° |
| 2026-05-01 10:02 | 31.57722 | 118.34484 | 3269 ft | 230 kts | 87° |
| 2026-05-01 10:02 | 31.57861 | 118.36346 | 3042 ft | 229 kts | 86° |
| 2026-05-01 10:02 | 31.58010 | 118.38188 | 3001 ft | 230 kts | 86° |
| 2026-05-01 10:03 | 31.58167 | 118.40050 | 3002 ft | 228 kts | 86° |
| 2026-05-01 10:03 | 31.58325 | 118.41876 | 3034 ft | 223 kts | 86° |
| 2026-05-01 10:03 | 31.58482 | 118.43678 | 3028 ft | 221 kts | 86° |
| 2026-05-01 10:03 | 31.58639 | 118.45464 | 3019 ft | 220 kts | 86° |
| 2026-05-01 10:04 | 31.58798 | 118.47244 | 3013 ft | 219 kts | 86° |
| 2026-05-01 10:04 | 31.58956 | 118.49017 | 3008 ft | 219 kts | 86° |
| 2026-05-01 10:04 | 31.59114 | 118.50792 | 3011 ft | 219 kts | 86° |
| 2026-05-01 10:04 | 31.59272 | 118.52569 | 3007 ft | 219 kts | 86° |
| 2026-05-01 10:05 | 31.59432 | 118.54346 | 3009 ft | 219 kts | 86° |
| 2026-05-01 10:05 | 31.59591 | 118.56126 | 3010 ft | 219 kts | 86° |
| 2026-05-01 10:05 | 31.59751 | 118.57908 | 3008 ft | 220 kts | 86° |
| 2026-05-01 10:05 | 31.59977 | 118.59652 | 2976 ft | 212 kts | 77° |
| 2026-05-01 10:06 | 31.60428 | 118.61251 | 2881 ft | 201 kts | 71° |
| 2026-05-01 10:06 | 31.60940 | 118.62752 | 2692 ft | 194 kts | 70° |
| 2026-05-01 10:06 | 31.61440 | 118.64215 | 2407 ft | 193 kts | 70° |
| 2026-05-01 10:06 | 31.61932 | 118.65690 | 2327 ft | 194 kts | 70° |
| 2026-05-01 10:07 | 31.62423 | 118.67166 | 2303 ft | 195 kts | 70° |
| 2026-05-01 10:07 | 31.62913 | 118.68648 | 2312 ft | 196 kts | 70° |
| 2026-05-01 10:07 | 31.63493 | 118.70093 | 2308 ft | 195 kts | 62° |
| 2026-05-01 10:07 | 31.64195 | 118.71446 | 2307 ft | 192 kts | 59° |
| 2026-05-01 10:08 | 31.65548 | 118.73962 | 2201 ft | 175 kts | 59° |
| 2026-05-01 10:08 | 31.66193 | 118.75166 | 1992 ft | 170 kts | 59° |
| 2026-05-01 10:08 | 31.66808 | 118.76314 | 1753 ft | 166 kts | 59° |
| 2026-05-01 10:09 | 31.67415 | 118.77450 | 1532 ft | 162 kts | 59° |
| 2026-05-01 10:09 | 31.68013 | 118.78555 | 1292 ft | 160 kts | 58° |
| 2026-05-01 10:09 | 31.68611 | 118.79636 | 1088 ft | 155 kts | 59° |
| 2026-05-01 10:09 | 31.69171 | 118.80715 | 870 ft | 153 kts | 60° |
| 2026-05-01 10:10 | 31.69733 | 118.81779 | 654 ft | 154 kts | 60° |
| 2026-05-01 10:10 | 31.70296 | 118.82836 | 477 ft | 152 kts | 59° |
| 2026-05-01 10:10 | 31.71422 | 118.84942 | 93 ft | 152 kts | 59° |
| 2026-05-01 10:11 | 31.71945 | 118.85922 | 58 ft | 116 kts | 60° |
| 2026-05-01 10:11 | 31.72226 | 118.86463 | 57 ft | 48 kts | 59° |
| 2026-05-01 10:11 | 31.72388 | 118.86657 | 57 ft | 22 kts | 24° |
| 2026-05-01 10:11 | 31.72448 | 118.86694 | 57 ft | 8 kts | 28° |
| 2026-05-01 10:12 | 31.72497 | 118.86725 | 57 ft | 8 kts | 28° |
| 2026-05-01 10:12 | 31.72546 | 118.86748 | 57 ft | 8 kts | 354° |
| 2026-05-01 10:12 | 31.72633 | 118.86693 | 57 ft | 7 kts | 327° |
| 2026-05-01 10:13 | 31.72673 | 118.86663 | 57 ft | 7 kts | 327° |
| 2026-05-01 10:13 | 31.72712 | 118.86634 | 57 ft | 7 kts | 327° |
| 2026-05-01 10:13 | 31.72760 | 118.86599 | 57 ft | 11 kts | 328° |
| 2026-05-01 10:14 | 31.72928 | 118.86475 | 57 ft | 9 kts | 328° |
| 2026-05-01 10:14 | 31.72991 | 118.86502 | 57 ft | 13 kts | 61° |
| 2026-05-01 10:14 | 31.73037 | 118.86590 | 57 ft | 11 kts | 58° |
| 2026-05-01 10:14 | 31.73043 | 118.86639 | 57 ft | 4 kts | 124° |
| 2026-05-01 10:15 | 31.73022 | 118.86660 | 57 ft | 1 kts | 146° |
| 2026-05-01 10:15 | 31.73019 | 118.86662 | 57 ft | 0 kts | 147° |